createdAt,value
2018-02-24T00:00:59.435Z,24.80
2018-02-24T00:02:04.928Z,27.30
2018-02-24T00:03:10.434Z,25.90
2018-02-24T00:04:15.937Z,28.10
2018-02-24T00:05:21.440Z,27.10
2018-02-24T00:06:26.943Z,26.00
2018-02-24T00:07:32.447Z,25.80
2018-02-24T00:08:37.955Z,26.50
2018-02-24T00:09:43.449Z,25.00
2018-02-24T00:10:48.953Z,25.60
2018-02-24T00:11:54.477Z,25.60
2018-02-24T00:12:59.966Z,24.90
2018-02-24T00:14:05.468Z,25.70
2018-02-24T00:15:10.969Z,26.00
2018-02-24T00:16:16.470Z,26.70
2018-02-24T00:17:21.979Z,25.40
2018-02-24T00:18:27.474Z,26.20
2018-02-24T00:19:32.983Z,26.20
2018-02-24T00:20:38.510Z,25.40
2018-02-24T00:21:43.989Z,25.40
2018-02-24T00:22:49.489Z,27.90
2018-02-24T00:23:54.996Z,27.10
2018-02-24T00:25:00.510Z,25.20
2018-02-24T00:26:05.996Z,25.60
2018-02-24T00:27:11.512Z,26.90
2018-02-24T00:28:17.005Z,27.70
2018-02-24T00:29:22.535Z,26.70
2018-02-24T00:30:28.102Z,27.10
2018-02-24T00:31:33.509Z,27.60
2018-02-24T00:32:39.015Z,27.50
2018-02-24T00:33:44.604Z,27.10
2018-02-24T00:34:50.022Z,26.60
2018-02-24T00:35:55.524Z,27.40
2018-02-24T00:37:01.033Z,25.90
2018-02-24T00:38:06.544Z,26.30
2018-02-24T00:39:12.043Z,28.00
2018-02-24T00:40:17.535Z,27.50
2018-02-24T00:41:23.050Z,28.60
2018-02-24T00:42:28.547Z,26.30
2018-02-24T00:43:34.046Z,28.30
2018-02-24T00:44:39.556Z,27.50
2018-02-24T00:45:45.051Z,26.50
2018-02-24T00:46:50.553Z,25.40
2018-02-24T00:47:56.060Z,28.60
2018-02-24T00:49:01.563Z,29.20
2018-02-24T00:50:07.066Z,26.80
2018-02-24T00:51:12.587Z,27.20
2018-02-24T00:52:18.069Z,27.50
2018-02-24T00:53:23.577Z,27.40
2018-02-24T00:54:29.075Z,27.60
2018-02-24T00:55:34.579Z,26.10
2018-02-24T00:56:40.084Z,27.60
2018-02-24T00:57:45.595Z,26.90
2018-02-24T00:58:51.088Z,26.00
2018-02-24T00:59:56.603Z,27.40
2018-02-24T01:01:02.093Z,26.60
2018-02-24T01:02:07.597Z,27.40
2018-02-24T01:03:13.103Z,25.80
2018-02-24T01:04:18.603Z,27.50
2018-02-24T01:05:24.115Z,26.80
2018-02-24T01:06:29.606Z,25.70
2018-02-24T01:07:35.117Z,27.00
2018-02-24T01:08:40.614Z,28.20
2018-02-24T01:09:46.121Z,26.80
2018-02-24T01:10:51.619Z,26.90
2018-02-24T01:11:57.127Z,26.10
2018-02-24T01:13:02.624Z,26.40
2018-02-24T01:14:08.132Z,29.00
2018-02-24T01:15:13.630Z,26.00
2018-02-24T01:16:19.137Z,27.60
2018-02-24T01:17:24.633Z,26.70
2018-02-24T01:18:30.138Z,26.70
2018-02-24T01:19:35.751Z,27.00
2018-02-24T01:20:41.149Z,28.60
2018-02-24T01:21:46.655Z,24.90
2018-02-24T01:22:52.158Z,25.60
2018-02-24T01:23:57.661Z,27.60
2018-02-24T01:25:03.161Z,25.70
2018-02-24T01:26:08.660Z,25.60
2018-02-24T01:27:14.164Z,28.60
2018-02-24T01:28:19.670Z,27.60
2018-02-24T01:29:25.169Z,27.00
2018-02-24T01:30:30.668Z,27.60
2018-02-24T01:31:36.212Z,26.20
2018-02-24T01:32:41.682Z,26.50
2018-02-24T01:33:47.177Z,26.20
2018-02-24T01:34:52.686Z,26.80
2018-02-24T01:35:58.208Z,29.10
2018-02-24T01:37:03.687Z,26.40
2018-02-24T01:38:09.199Z,28.20
2018-02-24T01:39:14.699Z,28.20
2018-02-24T01:40:20.196Z,25.40
2018-02-24T01:41:25.704Z,27.30
2018-02-24T01:42:31.210Z,25.60
2018-02-24T01:43:36.712Z,26.10
2018-02-24T01:44:42.213Z,28.60
2018-02-24T01:45:47.719Z,25.80
2018-02-24T01:46:53.216Z,27.30
2018-02-24T01:47:58.725Z,26.70
2018-02-24T01:49:04.219Z,25.20
2018-02-24T01:50:09.729Z,26.40
2018-02-24T01:51:15.232Z,25.50
2018-02-24T01:52:20.730Z,28.20
2018-02-24T01:53:26.230Z,27.10
2018-02-24T01:54:31.738Z,26.00
2018-02-24T01:55:37.235Z,28.70
2018-02-24T01:56:42.736Z,24.90
2018-02-24T01:57:48.248Z,27.40
2018-02-24T01:58:53.752Z,27.10
2018-02-24T01:59:59.268Z,26.50
2018-02-24T02:01:04.749Z,26.10
2018-02-24T02:02:10.259Z,25.80
2018-02-24T02:03:15.757Z,27.60
2018-02-24T02:04:21.255Z,27.00
2018-02-24T02:05:26.759Z,25.60
2018-02-24T02:06:32.265Z,26.10
2018-02-24T02:07:37.768Z,26.40
2018-02-24T02:08:43.268Z,26.10
2018-02-24T02:09:48.772Z,25.20
2018-02-24T02:10:54.278Z,26.10
2018-02-24T02:11:59.774Z,27.40
2018-02-24T02:13:05.278Z,26.10
2018-02-24T02:14:10.784Z,27.40
2018-02-24T02:15:16.289Z,25.30
2018-02-24T02:16:21.792Z,26.30
2018-02-24T02:17:27.288Z,26.60
2018-02-24T02:18:32.895Z,26.50
2018-02-24T02:19:38.299Z,27.90
2018-02-24T02:20:43.844Z,26.60
2018-02-24T02:21:49.298Z,25.30
2018-02-24T02:22:54.823Z,25.40
2018-02-24T02:24:00.382Z,26.80
2018-02-24T02:25:05.814Z,27.90
2018-02-24T02:26:11.311Z,27.20
2018-02-24T02:27:16.815Z,28.10
2018-02-24T02:28:22.316Z,24.70
2018-02-24T02:29:27.819Z,26.70
2018-02-24T02:30:33.324Z,26.90
2018-02-24T02:31:38.827Z,26.50
2018-02-24T02:32:44.334Z,26.50
2018-02-24T02:33:49.834Z,27.00
2018-02-24T02:34:55.334Z,28.00
2018-02-24T02:36:00.838Z,26.70
2018-02-24T02:37:06.344Z,25.90
2018-02-24T02:38:11.848Z,25.80
2018-02-24T02:39:17.350Z,26.40
2018-02-24T02:40:22.849Z,26.60
2018-02-24T02:41:28.356Z,27.10
2018-02-24T02:42:33.855Z,26.50
2018-02-24T02:43:39.359Z,30.50
2018-02-24T02:44:44.864Z,26.30
2018-02-24T02:45:50.373Z,25.90
2018-02-24T02:46:55.867Z,27.60
2018-02-24T02:48:01.364Z,24.60
2018-02-24T02:49:06.866Z,27.90
2018-02-24T02:50:12.383Z,25.80
2018-02-24T02:51:17.877Z,26.20
2018-02-24T02:52:23.375Z,28.50
2018-02-24T02:53:28.884Z,25.60
2018-02-24T02:54:34.378Z,26.10
2018-02-24T02:55:39.881Z,27.00
2018-02-24T02:56:45.385Z,26.60
2018-02-24T02:57:50.889Z,27.60
2018-02-24T02:58:56.390Z,28.20
2018-02-24T03:00:01.892Z,27.40
2018-02-24T03:01:07.401Z,27.10
2018-02-24T03:02:12.906Z,28.00
2018-02-24T03:03:18.401Z,28.40
2018-02-24T03:04:23.912Z,26.70
2018-02-24T03:05:29.408Z,27.20
2018-02-24T03:06:34.906Z,25.80
2018-02-24T03:07:40.423Z,25.80
2018-02-24T03:08:45.919Z,25.50
2018-02-24T03:09:51.415Z,27.40
2018-02-24T03:10:56.921Z,28.80
2018-02-24T03:12:02.437Z,24.90
2018-02-24T03:13:07.920Z,28.00
2018-02-24T03:14:13.425Z,26.80
2018-02-24T03:15:18.927Z,27.00
2018-02-24T03:16:24.442Z,27.50
2018-02-24T03:17:29.932Z,28.80
2018-02-24T03:18:35.430Z,26.60
2018-02-24T03:19:40.935Z,28.50
2018-02-24T03:20:46.439Z,30.80
2018-02-24T03:21:51.938Z,29.80
2018-02-24T03:22:57.449Z,28.00
2018-02-24T03:24:02.945Z,28.30
2018-02-24T03:25:08.449Z,27.10
2018-02-24T03:26:13.952Z,27.90
2018-02-24T03:27:19.454Z,28.40
2018-02-24T03:28:24.956Z,28.20
2018-02-24T03:29:30.459Z,27.60
2018-02-24T03:30:35.968Z,28.00
2018-02-24T03:31:41.460Z,25.20
2018-02-24T03:32:46.965Z,29.90
2018-02-24T03:33:52.470Z,25.40
2018-02-24T03:34:57.970Z,28.80
2018-02-24T03:36:03.472Z,26.50
2018-02-24T03:37:08.972Z,29.20
2018-02-24T03:38:14.475Z,27.90
2018-02-24T03:39:19.978Z,26.60
2018-02-24T03:40:25.480Z,27.90
2018-02-24T03:41:30.985Z,27.80
2018-02-24T03:42:36.485Z,28.90
2018-02-24T03:43:41.988Z,30.60
2018-02-24T03:44:47.488Z,26.70
2018-02-24T03:45:52.997Z,28.70
2018-02-24T03:46:58.498Z,28.70
2018-02-24T03:48:04.052Z,26.50
2018-02-24T03:49:09.507Z,29.50
2018-02-24T03:50:15.012Z,26.20
2018-02-24T03:51:20.506Z,26.90
2018-02-24T03:52:26.011Z,28.00
2018-02-24T03:53:31.509Z,28.40
2018-02-24T03:54:37.010Z,26.60
2018-02-24T03:55:42.528Z,27.20
2018-02-24T03:56:48.018Z,28.80
2018-02-24T03:57:53.522Z,27.90
2018-02-24T03:58:59.021Z,30.00
2018-02-24T04:00:04.524Z,28.30
2018-02-24T04:01:10.025Z,27.50
2018-02-24T04:02:15.527Z,28.90
2018-02-24T04:03:21.030Z,30.10
2018-02-24T04:04:26.535Z,28.90
2018-02-24T04:05:32.036Z,27.40
2018-02-24T04:06:37.539Z,27.90
2018-02-24T04:07:43.041Z,27.90
2018-02-24T04:08:48.553Z,28.30
2018-02-24T04:09:54.045Z,29.00
2018-02-24T04:10:59.550Z,29.20
2018-02-24T04:12:05.050Z,26.40
2018-02-24T04:13:10.554Z,27.90
2018-02-24T04:14:16.052Z,30.80
2018-02-24T04:15:21.562Z,29.10
2018-02-24T04:16:27.080Z,29.70
2018-02-24T04:17:32.564Z,29.10
2018-02-24T04:18:38.069Z,30.70
2018-02-24T04:19:43.567Z,29.20
2018-02-24T04:20:49.072Z,27.10
2018-02-24T04:21:54.573Z,28.70
2018-02-24T04:23:00.072Z,29.80
2018-02-24T04:24:05.577Z,28.70
2018-02-24T04:25:11.079Z,28.10
2018-02-24T04:26:16.586Z,29.70
2018-02-24T04:27:22.089Z,29.40
2018-02-24T04:28:27.584Z,29.00
2018-02-24T04:29:33.090Z,30.10
2018-02-24T04:30:38.596Z,28.80
2018-02-24T04:31:44.099Z,27.80
2018-02-24T04:32:49.601Z,28.40
2018-02-24T04:33:55.098Z,31.20
2018-02-24T04:35:00.604Z,30.60
2018-02-24T04:36:06.107Z,27.80
2018-02-24T04:37:11.612Z,26.50
2018-02-24T04:38:17.109Z,30.00
2018-02-24T04:39:22.621Z,29.10
2018-02-24T04:40:28.116Z,28.60
2018-02-24T04:41:33.620Z,27.90
2018-02-24T04:42:39.116Z,29.00
2018-02-24T04:43:44.718Z,28.10
2018-02-24T04:44:50.121Z,28.30
2018-02-24T04:45:55.630Z,27.40
2018-02-24T04:47:01.130Z,29.20
2018-02-24T04:48:06.627Z,30.00
2018-02-24T04:49:12.135Z,27.90
2018-02-24T04:50:17.640Z,28.10
2018-02-24T04:51:23.143Z,29.20
2018-02-24T04:52:28.637Z,28.80
2018-02-24T04:53:34.141Z,29.20
2018-02-24T04:54:39.642Z,29.40
2018-02-24T04:55:45.144Z,31.50
2018-02-24T04:56:50.646Z,27.20
2018-02-24T04:57:56.151Z,28.20
2018-02-24T04:59:01.653Z,30.20
2018-02-24T05:00:07.159Z,29.10
2018-02-24T05:01:12.659Z,30.20
2018-02-24T05:02:18.167Z,27.40
2018-02-24T05:03:23.664Z,29.60
2018-02-24T05:04:29.171Z,28.10
2018-02-24T05:05:34.671Z,31.40
2018-02-24T05:06:40.172Z,30.50
2018-02-24T05:07:45.677Z,28.90
2018-02-24T05:08:51.178Z,31.80
2018-02-24T05:09:56.696Z,28.10
2018-02-24T05:11:02.182Z,30.20
2018-02-24T05:12:07.683Z,30.40
2018-02-24T05:13:13.190Z,29.30
2018-02-24T05:14:18.689Z,28.40
2018-02-24T05:15:24.192Z,29.30
2018-02-24T05:16:29.703Z,29.40
2018-02-24T05:17:35.193Z,29.50
2018-02-24T05:18:40.699Z,29.10
2018-02-24T05:19:46.197Z,28.50
2018-02-24T05:20:51.699Z,29.20
2018-02-24T05:21:57.205Z,31.10
2018-02-24T05:23:02.711Z,29.50
2018-02-24T05:24:08.207Z,29.10
2018-02-24T05:25:13.707Z,28.80
2018-02-24T05:26:19.217Z,29.40
2018-02-24T05:27:24.710Z,30.30
2018-02-24T05:28:30.214Z,30.20
2018-02-24T05:29:35.718Z,31.20
2018-02-24T05:30:41.224Z,29.40
2018-02-24T05:31:46.721Z,29.90
2018-02-24T05:32:52.223Z,29.20
2018-02-24T05:33:57.726Z,29.40
2018-02-24T05:35:03.230Z,28.50
2018-02-24T05:36:08.732Z,27.90
2018-02-24T05:37:14.302Z,28.70
2018-02-24T05:38:19.741Z,27.30
2018-02-24T05:39:25.241Z,29.70
2018-02-24T05:40:30.738Z,30.00
2018-02-24T05:41:36.248Z,29.20
2018-02-24T05:42:41.742Z,29.10
2018-02-24T05:43:47.253Z,28.50
2018-02-24T05:44:52.748Z,28.30
2018-02-24T05:45:58.249Z,28.30
2018-02-24T05:47:03.756Z,30.00
2018-02-24T05:48:09.253Z,30.20
2018-02-24T05:49:14.761Z,29.90
2018-02-24T05:50:20.260Z,30.50
2018-02-24T05:51:25.762Z,30.90
2018-02-24T05:52:31.268Z,28.50
2018-02-24T05:53:36.765Z,28.60
2018-02-24T05:54:42.272Z,28.00
2018-02-24T05:55:47.784Z,30.00
2018-02-24T05:56:53.286Z,29.20
2018-02-24T05:57:58.775Z,31.70
2018-02-24T05:59:04.278Z,29.70
2018-02-24T06:00:09.794Z,30.50
2018-02-24T06:01:15.289Z,29.30
2018-02-24T06:02:20.791Z,29.90
2018-02-24T06:03:26.291Z,29.60
2018-02-24T06:04:31.797Z,31.30
2018-02-24T06:05:37.295Z,30.90
2018-02-24T06:06:42.800Z,30.50
2018-02-24T06:07:48.300Z,30.00
2018-02-24T06:08:53.799Z,27.80
2018-02-24T06:09:59.303Z,29.80
2018-02-24T06:11:04.809Z,30.30
2018-02-24T06:12:10.305Z,28.60
2018-02-24T06:13:15.811Z,31.00
2018-02-24T06:14:21.310Z,29.30
2018-02-24T06:15:26.817Z,28.60
2018-02-24T06:16:32.315Z,30.20
2018-02-24T06:17:37.816Z,27.00
2018-02-24T06:18:43.326Z,26.90
2018-02-24T06:19:48.830Z,28.20
2018-02-24T06:20:54.324Z,29.20
2018-02-24T06:21:59.825Z,29.00
2018-02-24T06:23:05.331Z,28.70
2018-02-24T06:24:10.829Z,28.30
2018-02-24T06:25:16.334Z,30.70
2018-02-24T06:26:21.838Z,31.60
2018-02-24T06:27:27.338Z,30.10
2018-02-24T06:28:32.840Z,30.10
2018-02-24T06:29:38.344Z,28.60
2018-02-24T06:30:43.857Z,28.60
2018-02-24T06:31:49.347Z,28.80
2018-02-24T06:32:54.849Z,29.40
2018-02-24T06:34:00.361Z,29.70
2018-02-24T06:35:05.856Z,29.60
2018-02-24T06:36:11.357Z,29.40
2018-02-24T06:37:16.858Z,29.40
2018-02-24T06:38:22.360Z,27.80
2018-02-24T06:39:27.859Z,27.30
2018-02-24T06:40:33.362Z,28.90
2018-02-24T06:41:38.866Z,28.40
2018-02-24T06:42:44.368Z,28.70
2018-02-24T06:43:49.869Z,30.10
2018-02-24T06:44:55.368Z,28.50
2018-02-24T06:46:00.874Z,29.80
2018-02-24T06:47:06.378Z,29.40
2018-02-24T06:48:11.880Z,28.80
2018-02-24T06:49:17.379Z,27.60
2018-02-24T06:50:22.880Z,27.90
2018-02-24T06:51:28.390Z,31.50
2018-02-24T06:52:33.887Z,29.40
2018-02-24T06:53:39.388Z,28.70
2018-02-24T06:54:44.889Z,28.80
2018-02-24T06:55:50.399Z,27.00
2018-02-24T06:56:55.900Z,27.40
2018-02-24T06:58:01.395Z,28.90
2018-02-24T06:59:06.902Z,28.10
2018-02-24T07:00:12.405Z,26.20
2018-02-24T07:01:17.902Z,29.20
2018-02-24T07:02:23.406Z,29.60
2018-02-24T07:03:28.910Z,28.10
2018-02-24T07:04:34.416Z,28.70
2018-02-24T07:05:39.913Z,26.50
2018-02-24T07:06:45.414Z,27.10
2018-02-24T07:07:50.920Z,28.90
2018-02-24T07:08:56.428Z,27.20
2018-02-24T07:10:01.920Z,27.60
2018-02-24T07:11:07.429Z,26.70
2018-02-24T07:12:12.927Z,26.00
2018-02-24T07:13:18.431Z,27.10
2018-02-24T07:14:23.933Z,30.40
2018-02-24T07:15:29.433Z,27.10
2018-02-24T07:16:34.944Z,28.60
2018-02-24T07:17:40.445Z,28.90
2018-02-24T07:18:45.959Z,25.60
2018-02-24T07:19:51.439Z,27.50
2018-02-24T07:20:56.940Z,28.30
2018-02-24T07:22:02.442Z,26.50
2018-02-24T07:23:07.946Z,27.30
2018-02-24T07:24:13.461Z,28.70
2018-02-24T07:25:18.950Z,28.90
2018-02-24T07:26:24.461Z,29.00
2018-02-24T07:27:29.959Z,27.00
2018-02-24T07:28:35.458Z,26.70
2018-02-24T07:29:40.960Z,26.20
2018-02-24T07:30:46.461Z,27.10
2018-02-24T07:31:51.964Z,25.10
2018-02-24T07:32:57.481Z,25.20
2018-02-24T07:34:02.971Z,26.20
2018-02-24T07:35:08.476Z,27.50
2018-02-24T07:36:13.985Z,27.10
2018-02-24T07:37:19.479Z,27.30
2018-02-24T07:38:24.987Z,25.30
2018-02-24T07:39:30.480Z,24.50
2018-02-24T07:40:36.061Z,28.70
2018-02-24T07:41:41.489Z,25.50
2018-02-24T07:42:46.991Z,27.70
2018-02-24T07:43:52.499Z,25.40
2018-02-24T07:44:57.997Z,24.80
2018-02-24T07:46:03.560Z,23.40
2018-02-24T07:47:09.003Z,25.00
2018-02-24T07:48:14.537Z,26.20
2018-02-24T07:49:20.002Z,25.90
2018-02-24T07:50:25.511Z,23.20
2018-02-24T07:51:31.010Z,23.30
2018-02-24T07:52:36.516Z,23.40
2018-02-24T07:53:42.014Z,24.20
2018-02-24T07:54:47.520Z,23.80
2018-02-24T07:55:53.022Z,25.10
2018-02-24T07:56:58.521Z,25.30
2018-02-24T07:58:04.024Z,24.80
2018-02-24T07:59:09.533Z,26.80
2018-02-24T08:00:15.035Z,25.00
2018-02-24T08:01:20.534Z,25.20
2018-02-24T08:02:26.035Z,24.60
2018-02-24T08:03:31.541Z,25.20
2018-02-24T08:04:37.036Z,25.60
2018-02-24T08:05:42.545Z,24.00
2018-02-24T08:06:48.045Z,23.40
2018-02-24T08:07:53.548Z,23.50
2018-02-24T08:08:59.048Z,24.00
2018-02-24T08:10:04.562Z,22.90
2018-02-24T08:11:10.059Z,22.80
2018-02-24T08:12:15.561Z,26.40
2018-02-24T08:13:21.058Z,23.70
2018-02-24T08:14:26.560Z,24.10
2018-02-24T08:15:32.078Z,23.40
2018-02-24T08:16:37.568Z,25.20
2018-02-24T08:17:43.076Z,24.20
2018-02-24T08:18:48.577Z,23.70
2018-02-24T08:19:54.078Z,23.20
2018-02-24T08:20:59.583Z,23.20
2018-02-24T08:22:05.079Z,26.10
2018-02-24T08:23:10.582Z,25.50
2018-02-24T08:24:16.093Z,22.90
2018-02-24T08:25:21.595Z,23.70
2018-02-24T08:26:27.090Z,21.20
2018-02-24T08:27:32.594Z,24.90
2018-02-24T08:28:38.121Z,22.80
2018-02-24T08:29:43.602Z,22.60
2018-02-24T08:30:49.099Z,23.00
2018-02-24T08:31:54.603Z,21.00
2018-02-24T08:33:00.111Z,22.80
2018-02-24T08:34:05.619Z,21.60
2018-02-24T08:35:11.112Z,24.00
2018-02-24T08:36:16.735Z,22.40
2018-02-24T08:37:22.116Z,22.90
2018-02-24T08:38:27.623Z,23.20
2018-02-24T08:39:33.126Z,21.80
2018-02-24T08:40:38.653Z,23.60
2018-02-24T08:41:44.133Z,23.00
2018-02-24T08:42:49.637Z,22.60
2018-02-24T08:43:55.141Z,21.10
2018-02-24T08:45:00.653Z,20.90
2018-02-24T08:46:06.143Z,20.60
2018-02-24T08:47:11.649Z,21.30
2018-02-24T08:48:17.153Z,20.90
2018-02-24T08:49:22.652Z,20.90
2018-02-24T08:50:28.157Z,20.80
2018-02-24T08:51:33.659Z,20.00
2018-02-24T08:52:39.163Z,24.20
2018-02-24T08:53:44.665Z,21.70
2018-02-24T08:54:50.173Z,21.20
2018-02-24T08:55:55.671Z,22.60
2018-02-24T08:57:01.177Z,21.40
2018-02-24T08:58:06.674Z,22.60
2018-02-24T08:59:12.178Z,21.50
2018-02-24T09:00:17.683Z,21.20
2018-02-24T09:01:23.186Z,18.70
2018-02-24T09:02:28.698Z,21.80
2018-02-24T09:03:34.204Z,21.90
2018-02-24T09:04:39.700Z,22.00
2018-02-24T09:05:45.198Z,21.20
2018-02-24T09:06:50.716Z,20.60
2018-02-24T09:07:56.212Z,20.40
2018-02-24T09:09:01.710Z,19.50
2018-02-24T09:10:07.219Z,21.70
2018-02-24T09:11:12.715Z,21.90
2018-02-24T09:12:18.220Z,28.80
2018-02-24T09:13:23.738Z,20.70
2018-02-24T09:14:29.239Z,22.30
2018-02-24T09:15:34.731Z,20.80
2018-02-24T09:16:40.239Z,21.70
2018-02-24T09:17:45.739Z,19.80
2018-02-24T09:18:51.245Z,21.00
2018-02-24T09:19:56.747Z,22.10
2018-02-24T09:21:02.251Z,20.00
2018-02-24T09:22:07.777Z,19.10
2018-02-24T09:23:13.255Z,20.20
2018-02-24T09:24:18.760Z,18.40
2018-02-24T09:25:24.266Z,21.30
2018-02-24T09:26:29.768Z,19.60
2018-02-24T09:27:35.391Z,18.70
2018-02-24T09:28:40.778Z,18.30
2018-02-24T09:29:46.289Z,19.80
2018-02-24T09:30:51.805Z,19.90
2018-02-24T09:31:57.298Z,19.20
2018-02-24T09:33:02.831Z,20.50
2018-02-24T09:34:08.302Z,18.00
2018-02-24T09:35:13.852Z,18.70
2018-02-24T09:36:19.303Z,19.80
2018-02-24T09:37:24.805Z,17.00
2018-02-24T09:38:30.308Z,21.20
2018-02-24T09:39:35.817Z,19.80
2018-02-24T09:40:41.319Z,20.40
2018-02-24T09:41:46.818Z,18.00
2018-02-24T09:42:52.325Z,17.20
2018-02-24T09:43:57.828Z,18.70
2018-02-24T09:45:03.338Z,20.10
2018-02-24T09:46:08.838Z,19.60
2018-02-24T09:47:14.341Z,18.60
2018-02-24T09:48:19.847Z,19.40
2018-02-24T09:49:25.366Z,16.90
2018-02-24T09:50:30.868Z,17.10
2018-02-24T09:51:36.354Z,18.80
2018-02-24T09:52:41.863Z,21.00
2018-02-24T09:53:47.373Z,20.20
2018-02-24T09:54:52.871Z,17.90
2018-02-24T09:55:58.378Z,18.70
2018-02-24T09:57:03.880Z,19.60
2018-02-24T09:58:09.381Z,17.30
2018-02-24T09:59:14.884Z,18.20
2018-02-24T10:00:20.396Z,19.20
2018-02-24T10:01:25.896Z,15.80
2018-02-24T10:02:31.397Z,15.00
2018-02-24T10:03:36.927Z,16.10
2018-02-24T10:04:42.406Z,17.60
2018-02-24T10:05:47.915Z,18.80
2018-02-24T10:06:53.414Z,15.70
2018-02-24T10:07:58.919Z,12.80
2018-02-24T10:09:04.429Z,12.40
2018-02-24T10:10:09.934Z,12.30
2018-02-24T10:11:15.440Z,12.30
2018-02-24T10:12:20.944Z,11.80
2018-02-24T10:13:26.444Z,11.70
2018-02-24T10:14:31.947Z,14.20
2018-02-24T10:15:37.460Z,10.50
2018-02-24T10:16:42.957Z,12.90
2018-02-24T10:17:48.466Z,11.50
2018-02-24T10:18:53.988Z,12.20
2018-02-24T10:19:59.467Z,12.00
2018-02-24T10:21:04.973Z,11.10
2018-02-24T10:22:10.481Z,9.80
2018-02-24T10:23:15.992Z,10.10
2018-02-24T10:24:21.491Z,12.10
2018-02-24T10:25:27.003Z,11.90
2018-02-24T10:26:32.512Z,11.00
2018-02-24T10:27:38.008Z,11.40
2018-02-24T10:28:43.506Z,11.90
2018-02-24T10:29:49.009Z,9.20
2018-02-24T10:30:54.513Z,10.50
2018-02-24T10:32:00.030Z,10.10
2018-02-24T10:33:05.531Z,12.20
2018-02-24T10:34:11.034Z,10.30
2018-02-24T10:35:16.544Z,10.80
2018-02-24T10:36:22.044Z,10.60
2018-02-24T10:37:27.549Z,11.00
2018-02-24T10:38:33.050Z,9.60
2018-02-24T10:39:38.556Z,11.20
2018-02-24T10:40:44.059Z,9.10
2018-02-24T10:41:49.565Z,10.80
2018-02-24T10:42:55.072Z,13.00
2018-02-24T10:44:00.579Z,11.70
2018-02-24T10:45:06.080Z,11.10
2018-02-24T10:46:11.584Z,10.70
2018-02-24T10:47:17.090Z,10.80
2018-02-24T10:48:22.597Z,11.00
2018-02-24T10:49:28.101Z,9.60
2018-02-24T10:50:33.607Z,10.80
2018-02-24T10:51:39.109Z,11.20
2018-02-24T10:52:44.616Z,9.20
2018-02-24T10:53:50.134Z,9.00
2018-02-24T10:54:55.628Z,10.90
2018-02-24T10:56:01.135Z,10.20
2018-02-24T10:57:06.641Z,9.70
2018-02-24T10:58:12.150Z,9.90
2018-02-24T10:59:17.670Z,9.90
2018-02-24T11:00:23.159Z,9.10
2018-02-24T11:01:28.660Z,10.80
2018-02-24T11:02:34.171Z,9.90
2018-02-24T11:03:39.671Z,9.70
2018-02-24T11:04:45.178Z,9.10
2018-02-24T11:05:50.722Z,10.10
2018-02-24T11:06:56.335Z,10.10
2018-02-24T11:08:01.691Z,10.40
2018-02-24T11:09:07.210Z,8.30
2018-02-24T11:10:12.741Z,9.40
2018-02-24T11:11:18.214Z,9.00
2018-02-24T11:12:23.718Z,9.70
2018-02-24T11:13:29.238Z,9.00
2018-02-24T11:14:34.727Z,9.90
2018-02-24T11:15:40.234Z,10.00
2018-02-24T11:16:45.750Z,9.70
2018-02-24T11:17:51.250Z,9.90
2018-02-24T11:18:56.752Z,8.50
2018-02-24T11:20:02.260Z,8.00
2018-02-24T11:21:07.769Z,8.30
2018-02-24T11:22:13.270Z,8.60
2018-02-24T11:23:18.775Z,9.50
2018-02-24T11:24:24.290Z,9.80
2018-02-24T11:25:29.788Z,8.70
2018-02-24T11:26:35.310Z,8.00
2018-02-24T11:27:40.801Z,9.60
2018-02-24T11:28:46.319Z,7.60
2018-02-24T11:29:51.808Z,8.70
2018-02-24T11:30:57.330Z,8.30
2018-02-24T11:32:02.832Z,10.80
2018-02-24T11:33:08.328Z,8.40
2018-02-24T11:34:13.841Z,8.60
2018-02-24T11:35:19.342Z,8.90
2018-02-24T11:36:24.858Z,10.40
2018-02-24T11:37:30.360Z,7.60
2018-02-24T11:38:35.875Z,8.50
2018-02-24T11:39:41.370Z,7.80
2018-02-24T11:40:46.879Z,8.10
2018-02-24T11:41:52.379Z,7.30
2018-02-24T11:42:57.890Z,7.40
2018-02-24T11:44:03.397Z,9.40
2018-02-24T11:45:08.916Z,7.40
2018-02-24T11:46:14.424Z,8.70
2018-02-24T11:47:19.918Z,9.40
2018-02-24T11:48:25.419Z,8.50
2018-02-24T11:49:30.926Z,7.90
2018-02-24T11:50:36.439Z,7.90
2018-02-24T11:51:41.939Z,8.20
2018-02-24T11:52:47.453Z,9.60
2018-02-24T11:53:52.959Z,8.60
2018-02-24T11:54:58.511Z,7.50
2018-02-24T11:56:03.975Z,8.40
2018-02-24T11:57:09.481Z,6.70
2018-02-24T11:58:14.982Z,7.40
2018-02-24T11:59:20.498Z,7.90
2018-02-24T12:00:25.992Z,7.30
2018-02-24T12:01:31.511Z,9.70
2018-02-24T12:02:37.007Z,6.80
2018-02-24T12:03:42.522Z,10.10
2018-02-24T12:04:48.022Z,8.10
2018-02-24T12:05:53.526Z,6.80
2018-02-24T12:06:59.029Z,8.70
2018-02-24T12:08:04.538Z,7.80
2018-02-24T12:09:10.046Z,7.50
2018-02-24T12:10:15.551Z,8.10
2018-02-24T12:11:21.059Z,8.60
2018-02-24T12:12:26.573Z,7.60
2018-02-24T12:13:32.072Z,6.70
2018-02-24T12:14:37.579Z,7.20
2018-02-24T12:15:43.082Z,7.70
2018-02-24T12:16:48.588Z,9.20
2018-02-24T12:17:54.099Z,7.30
2018-02-24T12:18:59.621Z,9.50
2018-02-24T12:20:05.124Z,8.30
2018-02-24T12:21:10.614Z,7.60
2018-02-24T12:22:16.136Z,7.40
2018-02-24T12:23:21.639Z,8.10
2018-02-24T12:24:27.132Z,8.70
2018-02-24T12:25:32.645Z,6.50
2018-02-24T12:26:38.154Z,7.30
2018-02-24T12:27:45.235Z,7.10
2018-02-24T12:28:49.167Z,7.10
2018-02-24T12:29:54.669Z,8.40
2018-02-24T12:31:00.176Z,6.30
2018-02-24T12:32:05.680Z,8.10
2018-02-24T12:33:11.189Z,7.40
2018-02-24T12:34:16.720Z,6.90
2018-02-24T12:35:22.206Z,8.00
2018-02-24T12:36:27.754Z,6.70
2018-02-24T12:37:33.226Z,7.50
2018-02-24T12:38:38.728Z,7.50
2018-02-24T12:39:44.234Z,7.70
2018-02-24T12:40:49.755Z,6.30
2018-02-24T12:41:55.249Z,6.50
2018-02-24T12:43:00.764Z,7.20
2018-02-24T12:44:06.268Z,6.00
2018-02-24T12:45:11.774Z,5.90
2018-02-24T12:46:17.281Z,7.00
2018-02-24T12:47:22.798Z,6.20
2018-02-24T12:48:28.296Z,5.50
2018-02-24T12:49:33.815Z,6.10
2018-02-24T12:50:39.316Z,5.70
2018-02-24T12:51:44.822Z,6.20
2018-02-24T12:52:50.335Z,5.70
2018-02-24T12:53:55.849Z,7.10
2018-02-24T12:55:01.355Z,5.90
2018-02-24T12:56:06.863Z,6.50
2018-02-24T12:57:12.375Z,5.20
2018-02-24T12:58:17.887Z,5.60
2018-02-24T12:59:23.420Z,5.60
2018-02-24T13:00:28.918Z,6.00
2018-02-24T13:01:34.423Z,5.90
2018-02-24T13:02:39.938Z,9.40
2018-02-24T13:03:45.468Z,5.60
2018-02-24T13:04:50.974Z,5.80
2018-02-24T13:05:56.489Z,5.20
2018-02-24T13:07:02.001Z,5.90
2018-02-24T13:08:07.518Z,5.00
2018-02-24T13:09:13.049Z,6.50
2018-02-24T13:10:18.550Z,5.60
2018-02-24T13:11:24.133Z,5.70
2018-02-24T13:12:29.586Z,6.00
2018-02-24T13:13:35.113Z,5.80
2018-02-24T13:14:40.626Z,5.60
2018-02-24T13:15:46.144Z,5.90
2018-02-24T13:16:51.661Z,4.90
2018-02-24T13:17:57.179Z,5.10
2018-02-24T13:19:02.700Z,5.40
2018-02-24T13:20:08.215Z,5.30
2018-02-24T13:21:13.748Z,5.30
2018-02-24T13:22:19.254Z,5.50
2018-02-24T13:23:24.789Z,5.20
2018-02-24T13:24:30.292Z,5.40
2018-02-24T13:25:35.825Z,5.00
2018-02-24T13:26:41.332Z,5.90
2018-02-24T13:27:46.849Z,5.50
2018-02-24T13:28:52.367Z,5.70
2018-02-24T13:29:57.887Z,6.20
2018-02-24T13:31:03.408Z,5.50
2018-02-24T13:32:08.927Z,6.00
2018-02-24T13:33:14.455Z,5.00
2018-02-24T13:34:19.966Z,5.70
2018-02-24T13:35:25.484Z,5.30
2018-02-24T13:36:31.010Z,6.70
2018-02-24T13:37:36.524Z,6.90
2018-02-24T13:38:42.056Z,5.80
2018-02-24T13:39:47.571Z,6.20
2018-02-24T13:40:53.088Z,6.10
2018-02-24T13:41:58.597Z,6.00
2018-02-24T13:43:04.120Z,5.30
2018-02-24T13:44:09.661Z,7.40
2018-02-24T13:45:15.168Z,7.00
2018-02-24T13:46:20.676Z,5.40
2018-02-24T13:47:26.196Z,6.60
2018-02-24T13:48:31.708Z,5.40
2018-02-24T13:49:37.230Z,7.60
2018-02-24T13:50:42.740Z,6.10
2018-02-24T13:51:48.263Z,6.60
2018-02-24T13:52:53.783Z,7.40
2018-02-24T13:53:59.300Z,5.90
2018-02-24T13:55:04.815Z,5.60
2018-02-24T13:56:10.335Z,6.00
2018-02-24T13:57:15.851Z,7.80
2018-02-24T13:58:21.375Z,7.80
2018-02-24T13:59:26.897Z,5.90
2018-02-24T14:00:32.407Z,6.10
2018-02-24T14:01:37.936Z,5.90
2018-02-24T14:02:43.447Z,6.10
2018-02-24T14:03:48.968Z,5.50
2018-02-24T14:04:54.492Z,6.20
2018-02-24T14:06:00.011Z,6.10
2018-02-24T14:07:05.522Z,6.10
2018-02-24T14:08:11.059Z,7.20
2018-02-24T14:09:16.566Z,7.70
2018-02-24T14:10:22.080Z,7.40